Friendship Express — WDJ4943 — position and weather

sailwx.info

Track history (hours):
 
Tides and Currents Weather Stations Pressure Air Temp Water Temp Dewpoint Dewpoint Depression Visibility Wind Speed Wind Dir Waves Ship Positions

Friendship Express

Owner: HNY Ferry Fleet LLC, New York, NY. More information available from US FCC via Universal Licensing System and Coast Guard Vessel Documentation Center.

Last reported at 2018-Apr-22 18:01 UTC. Time now 2018-Apr-22 18:14 UTC.
Position N 40°42' W 074°00'.

Length 26 m; draft 1.7 m.

Type: Passenger vessel. MMSI: 367782690.

Date/timePositionNaut miles runAvg speedWind from/ knotsBaromVisibWave heightAir tempDewpointWater temp
2018-Apr-22 18:01N 40°42' W 074°00'4 7.1
2018-Apr-22 17:31N 40°38' W 074°02'0 0.0
2018-Apr-22 17:00N 40°38' W 074°02'4 7.2
2018-Apr-22 16:31N 40°42' W 074°00'0 0.3
2018-Apr-22 16:00N 40°42' W 074°00'4 7.1
2018-Apr-22 15:30N 40°38' W 074°02'0 0.0
2018-Apr-22 15:01N 40°38' W 074°02'4 7.1
2018-Apr-22 14:30N 40°42' W 074°00'0 0.0
2018-Apr-22 14:00N 40°42' W 074°00'4 7.1
2018-Apr-22 13:30N 40°38' W 074°02'0 0.0
2018-Apr-22 13:00N 40°38' W 074°02'4 7.1
2018-Apr-22 12:30N 40°42' W 074°00'0 0.1
2018-Apr-22 12:01N 40°42' W 074°00'4 7.0
2018-Apr-22 11:30N 40°38' W 074°02'5 9.7
2018-Apr-22 11:01N 40°42' W 073°58'0 0.0
2018-Apr-22 02:36N 40°42' W 073°58'0 0.1
2018-Apr-22 02:30N 40°42' W 073°58'5 9.5
2018-Apr-22 02:01N 40°38' W 074°02'3 7.0
2018-Apr-22 01:31N 40°42' W 074°00'1 1.0
2018-Apr-22 01:01N 40°42' W 074°00'4 7.9
2018-Apr-22 00:30N 40°38' W 074°02'0 0.0
2018-Apr-22 00:00N 40°38' W 074°02'4 7.1
2018-Apr-21 23:31N 40°42' W 074°00'0 0.6
2018-Apr-21 23:01N 40°42' W 074°00'4 7.6
2018-Apr-21 22:31N 40°38' W 074°02'0 0.1
2018-Apr-21 22:00N 40°38' W 074°02'3 6.8
2018-Apr-21 21:31N 40°41' W 074°00'0 0.7
2018-Apr-21 21:00N 40°42' W 074°00'4 7.4
2018-Apr-21 20:30N 40°38' W 074°02'0 0.0
2018-Apr-21 20:00N 40°38' W 074°02'4 7.1
2018-Apr-21 19:30N 40°42' W 074°00'0 0.1
2018-Apr-21 19:01N 40°42' W 074°00'4 7.1
2018-Apr-21 18:30N 40°38' W 074°02'0 0.6
2018-Apr-21 18:01N 40°39' W 074°02'4 8.0
2018-Apr-21 17:30N 40°42' W 073°60'1 1.5
2018-Apr-21 17:00N 40°42' W 074°00'4 7.0
2018-Apr-21 16:30N 40°38' W 074°02'0 0.1
2018-Apr-21 16:01N 40°38' W 074°02'4 7.0
2018-Apr-21 15:30N 40°42' W 074°00'0 0.6
2018-Apr-21 15:00N 40°42' W 074°00'4 7.5
2018-Apr-21 14:31N 40°38' W 074°02'0 0.1
2018-Apr-21 14:00N 40°38' W 074°02'3 6.9
2018-Apr-21 13:30N 40°41' W 074°00'1 1.2
2018-Apr-21 13:01N 40°42' W 074°00'4 7.9
2018-Apr-21 12:31N 40°38' W 074°02'0 0.1
2018-Apr-21 12:00N 40°38' W 074°02'3 6.9
2018-Apr-21 11:31N 40°42' W 074°00'0 0.3
2018-Apr-21 11:01N 40°42' W 074°00'4 7.0
2018-Apr-21 10:30N 40°38' W 074°02'5 9.5
2018-Apr-21 10:00N 40°42' W 073°58'0 0.0
2018-Apr-21 09:30N 40°42' W 073°58'0 0.0
2018-Apr-21 01:49N 40°42' W 073°58'1 3.4
2018-Apr-21 01:30N 40°42' W 073°60'3 5.5
2018-Apr-21 01:00N 40°44' W 073°58'2 4.0
2018-Apr-21 00:30N 40°43' W 073°58'1 2.4
2018-Apr-21 00:00N 40°42' W 073°60'3 5.6
2018-Apr-20 23:31N 40°45' W 073°58'2 4.1
2018-Apr-20 23:00N 40°43' W 073°58'1 1.6
2018-Apr-20 22:30N 40°42' W 073°59'2 4.8
2018-Apr-20 22:00N 40°45' W 073°58'2 4.4
2018-Apr-20 21:30N 40°43' W 073°58'1 2.4
2018-Apr-20 21:00N 40°42' W 073°60'3 5.5
2018-Apr-20 20:30N 40°45' W 073°58'2 3.2
2018-Apr-20 20:01N 40°43' W 073°58'1 2.8
2018-Apr-20 19:31N 40°42' W 073°60'3 5.5
2018-Apr-20 19:00N 40°45' W 073°58'2 3.8
2018-Apr-20 18:30N 40°43' W 073°58'1 2.4
2018-Apr-20 18:00N 40°42' W 073°60'3 5.5
2018-Apr-20 17:30N 40°45' W 073°58'2 3.0
2018-Apr-20 17:00N 40°43' W 073°58'2 3.1
2018-Apr-20 16:30N 40°45' W 073°58'3 0.1
2018-Apr-19 22:46N 40°42' W 073°58'2 5.9
2018-Apr-19 22:30N 40°42' W 074°00'4 8.1
2018-Apr-19 22:00N 40°45' W 073°57'1 2.5
2018-Apr-19 21:30N 40°45' W 073°58'2 4.7
2018-Apr-19 21:01N 40°42' W 073°58'0 0.4
2018-Apr-19 20:30N 40°42' W 073°58'0 0.0
2018-Apr-19 20:00N 40°42' W 073°58'0 0.0
2018-Apr-19 19:30N 40°42' W 073°58'0 0.0
2018-Apr-19 19:00N 40°42' W 073°58'0 0.0
2018-Apr-19 18:30N 40°42' W 073°58'0 0.0
2018-Apr-19 18:00N 40°42' W 073°58'0 0.0
2018-Apr-19 17:30N 40°42' W 073°58'0 0.0
2018-Apr-19 17:00N 40°42' W 073°58'0 0.0
2018-Apr-19 16:30N 40°42' W 073°58'0 0.0
2018-Apr-19 16:00N 40°42' W 073°58'0 0.0
2018-Apr-19 15:30N 40°42' W 073°58'1 2.6
2018-Apr-19 15:01N 40°42' W 073°60'3 6.5
2018-Apr-19 14:30N 40°45' W 073°57'1 1.2
2018-Apr-19 14:00N 40°45' W 073°57'4 8.2
2018-Apr-19 13:30N 40°42' W 074°00'3 5.8
2018-Apr-19 13:00N 40°45' W 073°58'2 4.5
2018-Apr-19 12:30N 40°46' W 073°56'4 7.2
2018-Apr-19 12:00N 40°43' W 073°58'2 3.1
2018-Apr-19 11:30N 40°42' W 074°00'4 7.7
2018-Apr-19 11:00N 40°45' W 073°57'3 6.9
2018-Apr-19 10:31N 40°42' W 073°59'0 0.4
2018-Apr-19 10:01N 40°42' W 073°58'0 0.0
2018-Apr-19 00:00N 40°42' W 073°58'0 0.9
2018-Apr-18 23:31N 40°42' W 073°59'2 4.4
2018-Apr-18 23:00N 40°45' W 073°58'2 4.7
2018-Apr-18 22:30N 40°42' W 073°59'1 1.2
2018-Apr-18 22:00N 40°43' W 073°58'2 4.2
2018-Apr-18 21:30N 40°45' W 073°58'3 5.6
2018-Apr-18 21:00N 40°42' W 073°60'0 0.9
2018-Apr-18 20:30N 40°42' W 074°00'3 5.1
2018-Apr-18 20:01N 40°44' W 073°58'1 1.4
2018-Apr-18 19:30N 40°43' W 073°58'2 4.2
2018-Apr-18 19:00N 40°42' W 074°00'3 5.2
2018-Apr-18 18:30N 40°44' W 073°58'1 1.3
2018-Apr-18 18:00N 40°43' W 073°58'2 4.4
2018-Apr-18 17:31N 40°42' W 074°00'3 5.1
2018-Apr-18 17:00N 40°44' W 073°58'1 1.3
2018-Apr-18 16:30N 40°43' W 073°58'2 4.3
2018-Apr-18 16:00N 40°42' W 074°00'3 5.2
2018-Apr-18 15:31N 40°44' W 073°58'1 1.5
2018-Apr-18 15:00N 40°43' W 073°58'2 4.2
2018-Apr-18 14:30N 40°42' W 074°00'2 3.4
2018-Apr-18 14:00N 40°43' W 073°58'2 4.1
2018-Apr-18 13:30N 40°45' W 073°58'3 5.3
2018-Apr-18 13:00N 40°42' W 073°60'2 3.3
2018-Apr-18 12:30N 40°43' W 073°58'1 2.6
2018-Apr-18 12:00N 40°44' W 073°58'3 5.4
2018-Apr-18 11:30N 40°42' W 073°60'0 0.0
2018-Apr-18 11:01N 40°42' W 073°60'3 5.3
2018-Apr-18 10:30N 40°45' W 073°58'3 5.1
2018-Apr-18 10:00N 40°42' W 073°58'0 0.0
2018-Apr-18 09:30N 40°42' W 073°58'0 0.0
2018-Apr-18 00:29N 40°42' W 073°58'1 2.6
2018-Apr-18 00:00N 40°42' W 073°60'0 0.6
2018-Apr-17 23:28N 40°42' W 074°00'4 7.6
2018-Apr-17 23:00N 40°45' W 073°57'0 0.1
2018-Apr-17 22:30N 40°45' W 073°57'3 7.0
2018-Apr-17 22:00N 40°42' W 074°00'3 5.9
2018-Apr-17 21:30N 40°45' W 073°58'2 3.0
2018-Apr-17 20:59N 40°46' W 073°57'3 7.0
2018-Apr-17 20:30N 40°43' W 073°59'1 1.0
2018-Apr-17 19:58N 40°42' W 073°58'2 3.9
2018-Apr-17 19:30N 40°44' W 073°58'0 0.7
2018-Apr-17 19:00N 40°44' W 073°58'1 2.9
2018-Apr-17 18:30N 40°42' W 073°58'2 3.0
2018-Apr-17 18:00N 40°42' W 074°00'2 3.0
2018-Apr-17 17:30N 40°42' W 073°58'0 0.0
2018-Apr-17 17:00N 40°42' W 073°58'0 0.0
2018-Apr-17 14:41N 40°42' W 073°58'1 8.7
2018-Apr-17 14:30N 40°42' W 074°00'4 7.9
2018-Apr-17 14:00N 40°45' W 073°57'0 0.9
2018-Apr-17 13:30N 40°45' W 073°57'4 7.0
2018-Apr-17 13:01N 40°42' W 074°00'3 6.0
2018-Apr-17 12:31N 40°45' W 073°58'1 2.7
2018-Apr-17 12:00N 40°46' W 073°57'4 8.1
2018-Apr-17 11:30N 40°42' W 073°60'1 1.7
2018-Apr-17 11:01N 40°43' W 073°59'4 8.2
2018-Apr-17 10:30N 40°46' W 073°56'5 8.9
2018-Apr-17 10:00N 40°42' W 073°58'0 0.0
2018-Apr-17 02:36N 40°42' W 073°58'0 0.0
2018-Apr-17 02:30N 40°42' W 073°58'4 8.8
2018-Apr-17 02:00N 40°46' W 073°56'5 9.7
2018-Apr-17 01:30N 40°42' W 073°60'3 5.1
2018-Apr-17 01:00N 40°45' W 073°58'1 2.7
2018-Apr-17 00:28N 40°46' W 073°57'4 9.0
2018-Apr-17 00:01N 40°42' W 073°60'3 5.4
2018-Apr-16 23:30N 40°45' W 073°58'1 2.8
2018-Apr-16 23:00N 40°46' W 073°57'4 8.7
2018-Apr-16 22:31N 40°42' W 074°00'2 3.9
2018-Apr-16 22:01N 40°43' W 073°58'3 6.6
2018-Apr-16 21:30N 40°46' W 073°56'2 5.0
2018-Apr-16 21:00N 40°44' W 073°58'3 5.2
2018-Apr-16 20:31N 40°42' W 074°00'4 7.8
2018-Apr-16 20:00N 40°45' W 073°57'1 2.3
2018-Apr-16 19:30N 40°45' W 073°58'3 5.6
2018-Apr-16 19:00N 40°42' W 074°00'4 8.1
2018-Apr-16 18:30N 40°46' W 073°57'1 2.5
2018-Apr-16 17:59N 40°45' W 073°58'3 6.0
2018-Apr-16 17:30N 40°42' W 074°00'4 7.8
2018-Apr-16 17:00N 40°45' W 073°57'1 2.4
2018-Apr-16 16:30N 40°45' W 073°58'3 5.6
2018-Apr-16 16:01N 40°42' W 074°00'4 8.0
2018-Apr-16 15:31N 40°45' W 073°57'1 1.7
2018-Apr-16 15:01N 40°45' W 073°58'3 6.4
2018-Apr-16 14:30N 40°42' W 074°00'0 0.8
2018-Apr-16 14:01N 40°42' W 073°60'4 8.0
2018-Apr-16 13:30N 40°46' W 073°57'1 2.9
2018-Apr-16 13:00N 40°45' W 073°58'3 5.8
2018-Apr-16 12:31N 40°42' W 074°00'3 6.9
2018-Apr-16 12:00N 40°45' W 073°57'0 0.7
2018-Apr-16 11:30N 40°45' W 073°58'3 6.5
2018-Apr-16 11:00N 40°42' W 073°58'0 0.0
2018-Apr-15 22:55N 40°42' W 073°58'0 0.5
2018-Apr-15 22:30N 40°42' W 073°58'714.0
2018-Apr-15 22:00N 40°49' W 073°58'10 6.6
2018-Apr-15 20:27N 40°59' W 073°54'614.1
2018-Apr-15 20:00N 40°53' W 073°56'612.4
2018-Apr-15 19:30N 40°47' W 073°59'4 8.8
2018-Apr-15 19:01N 40°43' W 074°01'3 5.1
2018-Apr-15 18:31N 40°42' W 073°58'0 0.0
2018-Apr-15 18:00N 40°42' W 073°58'0 0.0
2018-Apr-15 17:30N 40°42' W 073°58'0 0.0
2018-Apr-15 17:00N 40°42' W 073°58'1 2.7
2018-Apr-15 16:30N 40°42' W 074°00'1 2.7
2018-Apr-15 16:00N 40°42' W 073°58'0 0.0
2018-Apr-15 15:30N 40°42' W 073°58'0 0.0
2018-Apr-15 15:00N 40°42' W 073°58'0 0.0
2018-Apr-15 14:31N 40°42' W 073°58'0 0.0
2018-Apr-15 14:00N 40°42' W 073°58'  
Track history (hours):
 
Tides and Currents Weather Stations Pressure Air Temp Water Temp Dewpoint Dewpoint Depression Visibility Wind Speed Wind Dir Waves Ship Positions

Friendship Express

Owner: HNY Ferry Fleet LLC, New York, NY. More information available from US FCC via Universal Licensing System and Coast Guard Vessel Documentation Center.

Last reported at 2018-Apr-22 18:01 UTC. Time now 2018-Apr-22 18:14 UTC.
Position N 40°42' W 074°00'.

Length 26 m; draft 1.7 m.

Type: Passenger vessel. MMSI: 367782690.

Date/timePositionNaut miles runAvg speedWind from/ knotsBaromVisibWave heightAir tempDewpointWater temp
2018-Apr-22 18:01N 40°42' W 074°00'4 7.1
2018-Apr-22 17:31N 40°38' W 074°02'0 0.0
2018-Apr-22 17:00N 40°38' W 074°02'4 7.2
2018-Apr-22 16:31N 40°42' W 074°00'0 0.3
2018-Apr-22 16:00N 40°42' W 074°00'4 7.1
2018-Apr-22 15:30N 40°38' W 074°02'0 0.0
2018-Apr-22 15:01N 40°38' W 074°02'4 7.1
2018-Apr-22 14:30N 40°42' W 074°00'0 0.0
2018-Apr-22 14:00N 40°42' W 074°00'4 7.1
2018-Apr-22 13:30N 40°38' W 074°02'0 0.0
2018-Apr-22 13:00N 40°38' W 074°02'4 7.1
2018-Apr-22 12:30N 40°42' W 074°00'0 0.1
2018-Apr-22 12:01N 40°42' W 074°00'4 7.0
2018-Apr-22 11:30N 40°38' W 074°02'5 9.7
2018-Apr-22 11:01N 40°42' W 073°58'0 0.0
2018-Apr-22 02:36N 40°42' W 073°58'0 0.1
2018-Apr-22 02:30N 40°42' W 073°58'5 9.5
2018-Apr-22 02:01N 40°38' W 074°02'3 7.0
2018-Apr-22 01:31N 40°42' W 074°00'1 1.0
2018-Apr-22 01:01N 40°42' W 074°00'4 7.9
2018-Apr-22 00:30N 40°38' W 074°02'0 0.0
2018-Apr-22 00:00N 40°38' W 074°02'4 7.1
2018-Apr-21 23:31N 40°42' W 074°00'0 0.6
2018-Apr-21 23:01N 40°42' W 074°00'4 7.6
2018-Apr-21 22:31N 40°38' W 074°02'0 0.1
2018-Apr-21 22:00N 40°38' W 074°02'3 6.8
2018-Apr-21 21:31N 40°41' W 074°00'0 0.7
2018-Apr-21 21:00N 40°42' W 074°00'4 7.4
2018-Apr-21 20:30N 40°38' W 074°02'0 0.0
2018-Apr-21 20:00N 40°38' W 074°02'4 7.1
2018-Apr-21 19:30N 40°42' W 074°00'0 0.1
2018-Apr-21 19:01N 40°42' W 074°00'4 7.1
2018-Apr-21 18:30N 40°38' W 074°02'0 0.6
2018-Apr-21 18:01N 40°39' W 074°02'4 8.0
2018-Apr-21 17:30N 40°42' W 073°60'1 1.5
2018-Apr-21 17:00N 40°42' W 074°00'4 7.0
2018-Apr-21 16:30N 40°38' W 074°02'0 0.1
2018-Apr-21 16:01N 40°38' W 074°02'4 7.0
2018-Apr-21 15:30N 40°42' W 074°00'0 0.6
2018-Apr-21 15:00N 40°42' W 074°00'4 7.5
2018-Apr-21 14:31N 40°38' W 074°02'0 0.1
2018-Apr-21 14:00N 40°38' W 074°02'3 6.9
2018-Apr-21 13:30N 40°41' W 074°00'1 1.2
2018-Apr-21 13:01N 40°42' W 074°00'4 7.9
2018-Apr-21 12:31N 40°38' W 074°02'0 0.1
2018-Apr-21 12:00N 40°38' W 074°02'3 6.9
2018-Apr-21 11:31N 40°42' W 074°00'0 0.3
2018-Apr-21 11:01N 40°42' W 074°00'4 7.0
2018-Apr-21 10:30N 40°38' W 074°02'5 9.5
2018-Apr-21 10:00N 40°42' W 073°58'0 0.0
2018-Apr-21 09:30N 40°42' W 073°58'0 0.0
2018-Apr-21 01:49N 40°42' W 073°58'1 3.4
2018-Apr-21 01:30N 40°42' W 073°60'3 5.5
2018-Apr-21 01:00N 40°44' W 073°58'2 4.0
2018-Apr-21 00:30N 40°43' W 073°58'1 2.4
2018-Apr-21 00:00N 40°42' W 073°60'3 5.6
2018-Apr-20 23:31N 40°45' W 073°58'2 4.1
2018-Apr-20 23:00N 40°43' W 073°58'1 1.6
2018-Apr-20 22:30N 40°42' W 073°59'2 4.8
2018-Apr-20 22:00N 40°45' W 073°58'2 4.4
2018-Apr-20 21:30N 40°43' W 073°58'1 2.4
2018-Apr-20 21:00N 40°42' W 073°60'3 5.5
2018-Apr-20 20:30N 40°45' W 073°58'2 3.2
2018-Apr-20 20:01N 40°43' W 073°58'1 2.8
2018-Apr-20 19:31N 40°42' W 073°60'3 5.5
2018-Apr-20 19:00N 40°45' W 073°58'2 3.8
2018-Apr-20 18:30N 40°43' W 073°58'1 2.4
2018-Apr-20 18:00N 40°42' W 073°60'3 5.5
2018-Apr-20 17:30N 40°45' W 073°58'2 3.0
2018-Apr-20 17:00N 40°43' W 073°58'2 3.1
2018-Apr-20 16:30N 40°45' W 073°58'3 0.1
2018-Apr-19 22:46N 40°42' W 073°58'2 5.9
2018-Apr-19 22:30N 40°42' W 074°00'4 8.1
2018-Apr-19 22:00N 40°45' W 073°57'1 2.5
2018-Apr-19 21:30N 40°45' W 073°58'2 4.7
2018-Apr-19 21:01N 40°42' W 073°58'0 0.4
2018-Apr-19 20:30N 40°42' W 073°58'0 0.0
2018-Apr-19 20:00N 40°42' W 073°58'0 0.0
2018-Apr-19 19:30N 40°42' W 073°58'0 0.0
2018-Apr-19 19:00N 40°42' W 073°58'0 0.0
2018-Apr-19 18:30N 40°42' W 073°58'0 0.0
2018-Apr-19 18:00N 40°42' W 073°58'0 0.0
2018-Apr-19 17:30N 40°42' W 073°58'0 0.0
2018-Apr-19 17:00N 40°42' W 073°58'0 0.0
2018-Apr-19 16:30N 40°42' W 073°58'0 0.0
2018-Apr-19 16:00N 40°42' W 073°58'0 0.0
2018-Apr-19 15:30N 40°42' W 073°58'1 2.6
2018-Apr-19 15:01N 40°42' W 073°60'3 6.5
2018-Apr-19 14:30N 40°45' W 073°57'1 1.2
2018-Apr-19 14:00N 40°45' W 073°57'4 8.2
2018-Apr-19 13:30N 40°42' W 074°00'3 5.8
2018-Apr-19 13:00N 40°45' W 073°58'2 4.5
2018-Apr-19 12:30N 40°46' W 073°56'4 7.2
2018-Apr-19 12:00N 40°43' W 073°58'2 3.1
2018-Apr-19 11:30N 40°42' W 074°00'4 7.7
2018-Apr-19 11:00N 40°45' W 073°57'3 6.9
2018-Apr-19 10:31N 40°42' W 073°59'0 0.4
2018-Apr-19 10:01N 40°42' W 073°58'0 0.0
2018-Apr-19 00:00N 40°42' W 073°58'0 0.9
2018-Apr-18 23:31N 40°42' W 073°59'2 4.4
2018-Apr-18 23:00N 40°45' W 073°58'2 4.7
2018-Apr-18 22:30N 40°42' W 073°59'1 1.2
2018-Apr-18 22:00N 40°43' W 073°58'2 4.2
2018-Apr-18 21:30N 40°45' W 073°58'3 5.6
2018-Apr-18 21:00N 40°42' W 073°60'0 0.9
2018-Apr-18 20:30N 40°42' W 074°00'3 5.1
2018-Apr-18 20:01N 40°44' W 073°58'1 1.4
2018-Apr-18 19:30N 40°43' W 073°58'2 4.2
2018-Apr-18 19:00N 40°42' W 074°00'3 5.2
2018-Apr-18 18:30N 40°44' W 073°58'1 1.3
2018-Apr-18 18:00N 40°43' W 073°58'2 4.4
2018-Apr-18 17:31N 40°42' W 074°00'3 5.1
2018-Apr-18 17:00N 40°44' W 073°58'1 1.3
2018-Apr-18 16:30N 40°43' W 073°58'2 4.3
2018-Apr-18 16:00N 40°42' W 074°00'3 5.2
2018-Apr-18 15:31N 40°44' W 073°58'1 1.5
2018-Apr-18 15:00N 40°43' W 073°58'2 4.2
2018-Apr-18 14:30N 40°42' W 074°00'2 3.4
2018-Apr-18 14:00N 40°43' W 073°58'2 4.1
2018-Apr-18 13:30N 40°45' W 073°58'3 5.3
2018-Apr-18 13:00N 40°42' W 073°60'2 3.3
2018-Apr-18 12:30N 40°43' W 073°58'1 2.6
2018-Apr-18 12:00N 40°44' W 073°58'3 5.4
2018-Apr-18 11:30N 40°42' W 073°60'0 0.0
2018-Apr-18 11:01N 40°42' W 073°60'3 5.3
2018-Apr-18 10:30N 40°45' W 073°58'3 5.1
2018-Apr-18 10:00N 40°42' W 073°58'0 0.0
2018-Apr-18 09:30N 40°42' W 073°58'0 0.0
2018-Apr-18 00:29N 40°42' W 073°58'1 2.6
2018-Apr-18 00:00N 40°42' W 073°60'0 0.6
2018-Apr-17 23:28N 40°42' W 074°00'4 7.6
2018-Apr-17 23:00N 40°45' W 073°57'0 0.1
2018-Apr-17 22:30N 40°45' W 073°57'3 7.0
2018-Apr-17 22:00N 40°42' W 074°00'3 5.9
2018-Apr-17 21:30N 40°45' W 073°58'2 3.0
2018-Apr-17 20:59N 40°46' W 073°57'3 7.0
2018-Apr-17 20:30N 40°43' W 073°59'1 1.0
2018-Apr-17 19:58N 40°42' W 073°58'2 3.9
2018-Apr-17 19:30N 40°44' W 073°58'0 0.7
2018-Apr-17 19:00N 40°44' W 073°58'1 2.9
2018-Apr-17 18:30N 40°42' W 073°58'2 3.0
2018-Apr-17 18:00N 40°42' W 074°00'2 3.0
2018-Apr-17 17:30N 40°42' W 073°58'0 0.0
2018-Apr-17 17:00N 40°42' W 073°58'0 0.0
2018-Apr-17 14:41N 40°42' W 073°58'1 8.7
2018-Apr-17 14:30N 40°42' W 074°00'4 7.9
2018-Apr-17 14:00N 40°45' W 073°57'0 0.9
2018-Apr-17 13:30N 40°45' W 073°57'4 7.0
2018-Apr-17 13:01N 40°42' W 074°00'3 6.0
2018-Apr-17 12:31N 40°45' W 073°58'1 2.7
2018-Apr-17 12:00N 40°46' W 073°57'4 8.1
2018-Apr-17 11:30N 40°42' W 073°60'1 1.7
2018-Apr-17 11:01N 40°43' W 073°59'4 8.2
2018-Apr-17 10:30N 40°46' W 073°56'5 8.9
2018-Apr-17 10:00N 40°42' W 073°58'0 0.0
2018-Apr-17 02:36N 40°42' W 073°58'0 0.0
2018-Apr-17 02:30N 40°42' W 073°58'4 8.8
2018-Apr-17 02:00N 40°46' W 073°56'5 9.7
2018-Apr-17 01:30N 40°42' W 073°60'3 5.1
2018-Apr-17 01:00N 40°45' W 073°58'1 2.7
2018-Apr-17 00:28N 40°46' W 073°57'4 9.0
2018-Apr-17 00:01N 40°42' W 073°60'3 5.4
2018-Apr-16 23:30N 40°45' W 073°58'1 2.8
2018-Apr-16 23:00N 40°46' W 073°57'4 8.7
2018-Apr-16 22:31N 40°42' W 074°00'2 3.9
2018-Apr-16 22:01N 40°43' W 073°58'3 6.6
2018-Apr-16 21:30N 40°46' W 073°56'2 5.0
2018-Apr-16 21:00N 40°44' W 073°58'3 5.2
2018-Apr-16 20:31N 40°42' W 074°00'4 7.8
2018-Apr-16 20:00N 40°45' W 073°57'1 2.3
2018-Apr-16 19:30N 40°45' W 073°58'3 5.6
2018-Apr-16 19:00N 40°42' W 074°00'4 8.1
2018-Apr-16 18:30N 40°46' W 073°57'1 2.5
2018-Apr-16 17:59N 40°45' W 073°58'3 6.0
2018-Apr-16 17:30N 40°42' W 074°00'4 7.8
2018-Apr-16 17:00N 40°45' W 073°57'1 2.4
2018-Apr-16 16:30N 40°45' W 073°58'3 5.6
2018-Apr-16 16:01N 40°42' W 074°00'4 8.0
2018-Apr-16 15:31N 40°45' W 073°57'1 1.7
2018-Apr-16 15:01N 40°45' W 073°58'3 6.4
2018-Apr-16 14:30N 40°42' W 074°00'0 0.8
2018-Apr-16 14:01N 40°42' W 073°60'4 8.0
2018-Apr-16 13:30N 40°46' W 073°57'1 2.9
2018-Apr-16 13:00N 40°45' W 073°58'3 5.8
2018-Apr-16 12:31N 40°42' W 074°00'3 6.9
2018-Apr-16 12:00N 40°45' W 073°57'0 0.7
2018-Apr-16 11:30N 40°45' W 073°58'3 6.5
2018-Apr-16 11:00N 40°42' W 073°58'0 0.0
2018-Apr-15 22:55N 40°42' W 073°58'0 0.5
2018-Apr-15 22:30N 40°42' W 073°58'714.0
2018-Apr-15 22:00N 40°49' W 073°58'10 6.6
2018-Apr-15 20:27N 40°59' W 073°54'614.1
2018-Apr-15 20:00N 40°53' W 073°56'612.4
2018-Apr-15 19:30N 40°47' W 073°59'4 8.8
2018-Apr-15 19:01N 40°43' W 074°01'3 5.1
2018-Apr-15 18:31N 40°42' W 073°58'0 0.0
2018-Apr-15 18:00N 40°42' W 073°58'0 0.0
2018-Apr-15 17:30N 40°42' W 073°58'0 0.0
2018-Apr-15 17:00N 40°42' W 073°58'1 2.7
2018-Apr-15 16:30N 40°42' W 074°00'1 2.7
2018-Apr-15 16:00N 40°42' W 073°58'0 0.0
2018-Apr-15 15:30N 40°42' W 073°58'0 0.0
2018-Apr-15 15:00N 40°42' W 073°58'0 0.0
2018-Apr-15 14:31N 40°42' W 073°58'0 0.0
2018-Apr-15 14:00N 40°42' W 073°58'  

Dump ship's entire track history